CYYE

Fort Nelson Airport

Fort Nelson, British Columbia, Canada
METAR CYYE 181600Z 33006KT 15SM -SN FEW036 BKN059 OVC083 M09/M12 A2983 RMK SF2SC5AC1 SLP129
Observed Flight Rules
Dec-18 @ 16:00 UTC (39 minutes ago) Visual Flight Rules
Wind Visibility Clouds Conditions
330° at 6 knots 15 miles
  • Few at 3,600' AGL
  • Broken at 5,900' AGL
  • Overcast at 8,300' AGL
  • Light Snow
Temperatures Readings
Current -9°C / 16°F
Dewpoint -12°C / 10°F
Humidity 79%
Altimeter 29.83" Hg
Pressure 1012.9 hPa
Elevation 382
METAR CYYE 181600Z 33006KT 15SM -SN FEW036 BKN059 OVC083 M09/M12 A2983 RMK SF2SC5AC1 SLP129
Observed Flight Rules
Dec-18 @ 16:00 UTC
(39 minutes ago)
VFR
Wind Visibility
330° at 6 knots 15 miles
Clouds
  • Few at 3,600' AGL
  • Broken at 5,900' AGL
  • Overcast at 8,300' AGL
Conditions
  • Light Snow
Temperature Dewpoint
-9°C / 16°F -12°C / 10°F
Humidity Altimeter Pressure
79% 29.83" Hg 1012.9 hPa